Bald Head Island, North Carolina
Current Conditions -  °F | °C
As of 11:55 PM on Wednesday 22 Oct 2014 (Local Time) from KSUT Reporting Station
Clear Clear  
Wind Chill: 52°   Ceiling: Unl
Heat Index: 52°   Visibility: 10mi
Dew Point: 45°   Wind: 5mph
Humidity: 75%   Direction: 320°NW
Pressure: 30.02"   Gusts: NA
Location:  34.0734°N, 78.0547°W
Report Text: KSUT 230355Z AUTO 32004KT 10SM CLR 11/07 A3002 RMK AO2 T01120070
Loading
Personal Weather Stations






























Interactive Weather Map
Tropical Storm Tracking
New forecast layout! Learn more

10-Day Weather Forecast

Advertisements
Track Severe Weather on mobile